sensor_id;sensor_type;location;lat;lon;timestamp;pressure;altitude;pressure_sealevel;temperature;humidity
84188;BME280;76752;45.648;13.764;2024-02-21T00:00:47;102536.88;;;21.44;54.59
84188;BME280;76752;45.648;13.764;2024-02-21T00:03:12;102528.16;;;21.42;54.53
84188;BME280;76752;45.648;13.764;2024-02-21T00:05:38;102531.03;;;21.41;54.74
84188;BME280;76752;45.648;13.764;2024-02-21T00:08:04;102528.34;;;21.41;54.36
84188;BME280;76752;45.648;13.764;2024-02-21T00:10:31;102530.19;;;21.40;55.00
84188;BME280;76752;45.648;13.764;2024-02-21T00:12:58;102533.88;;;21.39;54.55
84188;BME280;76752;45.648;13.764;2024-02-21T00:15:25;102526.84;;;21.38;54.98
84188;BME280;76752;45.648;13.764;2024-02-21T00:17:51;102530.56;;;21.37;55.03
84188;BME280;76752;45.648;13.764;2024-02-21T00:20:17;102525.19;;;21.37;54.63
84188;BME280;76752;45.648;13.764;2024-02-21T00:22:44;102528.88;;;21.36;54.43
84188;BME280;76752;45.648;13.764;2024-02-21T00:25:10;102522.69;;;21.36;55.09
84188;BME280;76752;45.648;13.764;2024-02-21T00:27:36;102522.81;;;21.34;55.10
84188;BME280;76752;45.648;13.764;2024-02-21T00:30:02;102520.97;;;21.35;55.17
84188;BME280;76752;45.648;13.764;2024-02-21T00:32:29;102525.50;;;21.34;54.84
84188;BME280;76752;45.648;13.764;2024-02-21T00:34:54;102523.84;;;21.33;55.34
84188;BME280;76752;45.648;13.764;2024-02-21T00:37:20;102520.31;;;21.33;54.84
84188;BME280;76752;45.648;13.764;2024-02-21T00:39:47;102518.47;;;21.33;55.06
84188;BME280;76752;45.648;13.764;2024-02-21T00:42:13;102507.91;;;21.32;54.51
84188;BME280;76752;45.648;13.764;2024-02-21T00:44:40;102516.81;;;21.32;54.95
84188;BME280;76752;45.648;13.764;2024-02-21T00:47:06;102511.44;;;21.32;55.13
84188;BME280;76752;45.648;13.764;2024-02-21T00:49:33;102508.09;;;21.30;54.90
84188;BME280;76752;45.648;13.764;2024-02-21T00:51:58;102508.09;;;21.30;55.12
84188;BME280;76752;45.648;13.764;2024-02-21T00:54:24;102509.94;;;21.30;54.60
84188;BME280;76752;45.648;13.764;2024-02-21T00:56:49;102502.91;;;21.28;54.51
84188;BME280;76752;45.648;13.764;2024-02-21T00:59:15;102496.72;;;21.28;54.42
84188;BME280;76752;45.648;13.764;2024-02-21T01:01:43;102498.75;;;21.26;55.01
84188;BME280;76752;45.648;13.764;2024-02-21T01:04:09;102494.31;;;21.25;54.79
84188;BME280;76752;45.648;13.764;2024-02-21T01:06:35;102499.69;;;21.25;54.84
84188;BME280;76752;45.648;13.764;2024-02-21T01:09:01;102491.81;;;21.23;55.17
84188;BME280;76752;45.648;13.764;2024-02-21T01:11:27;102498.03;;;21.24;55.40
84188;BME280;76752;45.648;13.764;2024-02-21T01:13:53;102491.00;;;21.23;54.63
84188;BME280;76752;45.648;13.764;2024-02-21T01:16:18;102484.78;;;21.22;54.75
84188;BME280;76752;45.648;13.764;2024-02-21T01:18:45;102483.13;;;21.21;54.76
84188;BME280;76752;45.648;13.764;2024-02-21T01:21:10;102491.34;;;21.20;54.93
84188;BME280;76752;45.648;13.764;2024-02-21T01:23:36;102481.63;;;21.19;55.21
84188;BME280;76752;45.648;13.764;2024-02-21T01:26:05;102489.69;;;21.19;54.65
84188;BME280;76752;45.648;13.764;2024-02-21T01:28:34;102478.28;;;21.17;55.18
84188;BME280;76752;45.648;13.764;2024-02-21T01:31:00;102480.97;;;21.17;55.14
84188;BME280;76752;45.648;13.764;2024-02-21T01:33:26;102473.94;;;21.16;54.97
84188;BME280;76752;45.648;13.764;2024-02-21T01:35:51;102477.59;;;21.15;54.98
84188;BME280;76752;45.648;13.764;2024-02-21T01:38:17;102477.59;;;21.15;54.88
84188;BME280;76752;45.648;13.764;2024-02-21T01:40:44;102474.28;;;21.13;54.93
84188;BME280;76752;45.648;13.764;2024-02-21T01:43:16;102474.28;;;21.13;55.08
84188;BME280;76752;45.648;13.764;2024-02-21T01:45:50;102473.44;;;21.12;54.41
84188;BME280;76752;45.648;13.764;2024-02-21T01:48:18;102467.25;;;21.12;54.82
84188;BME280;76752;45.648;13.764;2024-02-21T01:51:04;102474.44;;;21.11;54.81
84188;BME280;76752;45.648;13.764;2024-02-21T01:53:33;102463.91;;;21.10;54.63
84188;BME280;76752;45.648;13.764;2024-02-21T01:56:00;102463.91;;;21.10;54.51
84188;BME280;76752;45.648;13.764;2024-02-21T01:58:29;102462.22;;;21.09;54.22
84188;BME280;76752;45.648;13.764;2024-02-21T02:00:56;102462.22;;;21.09;54.60
84188;BME280;76752;45.648;13.764;2024-02-21T02:03:22;102465.94;;;21.08;54.31
84188;BME280;76752;45.648;13.764;2024-02-21T02:05:49;102458.91;;;21.07;54.81
84188;BME280;76752;45.648;13.764;2024-02-21T02:08:16;102458.91;;;21.07;54.80
84188;BME280;76752;45.648;13.764;2024-02-21T02:10:42;102459.06;;;21.05;54.95
84188;BME280;76752;45.648;13.764;2024-02-21T02:13:09;102450.16;;;21.05;55.19
84188;BME280;76752;45.648;13.764;2024-02-21T02:18:05;102453.84;;;21.04;54.98
84188;BME280;76752;45.648;13.764;2024-02-21T02:20:30;102446.81;;;21.03;54.47
84188;BME280;76752;45.648;13.764;2024-02-21T02:22:59;102454.22;;;21.00;55.13
84188;BME280;76752;45.648;13.764;2024-02-21T02:25:26;102448.84;;;21.00;55.26
84188;BME280;76752;45.648;13.764;2024-02-21T02:27:52;102454.22;;;21.00;54.44
84188;BME280;76752;45.648;13.764;2024-02-21T02:30:18;102441.81;;;20.99;54.45
84188;BME280;76752;45.648;13.764;2024-02-21T02:32:45;102449.03;;;20.99;55.46
84188;BME280;76752;45.648;13.764;2024-02-21T02:35:14;102456.25;;;20.98;55.37
84188;BME280;76752;45.648;13.764;2024-02-21T02:37:40;102454.59;;;20.97;54.51
84188;BME280;76752;45.648;13.764;2024-02-21T02:40:06;102457.44;;;20.96;54.54
84188;BME280;76752;45.648;13.764;2024-02-21T02:42:32;102459.31;;;20.95;55.16
84188;BME280;76752;45.648;13.764;2024-02-21T02:44:58;102455.59;;;20.96;54.87
84188;BME280;76752;45.648;13.764;2024-02-21T02:47:24;102454.91;;;20.94;54.96
84188;BME280;76752;45.648;13.764;2024-02-21T02:49:49;102451.41;;;20.94;54.83
84188;BME280;76752;45.648;13.764;2024-02-21T02:52:17;102449.56;;;20.94;54.85
84188;BME280;76752;45.648;13.764;2024-02-21T02:54:43;102452.41;;;20.93;54.63
84188;BME280;76752;45.648;13.764;2024-02-21T02:57:10;102452.41;;;20.93;54.55
84188;BME280;76752;45.648;13.764;2024-02-21T02:59:35;102460.47;;;20.93;54.71
84188;BME280;76752;45.648;13.764;2024-02-21T03:02:02;102456.94;;;20.92;55.26
84188;BME280;76752;45.648;13.764;2024-02-21T03:04:28;102460.66;;;20.91;54.87
84188;BME280;76752;45.648;13.764;2024-02-21T03:06:54;102459.81;;;20.91;54.85
84188;BME280;76752;45.648;13.764;2024-02-21T03:09:20;102465.19;;;20.91;55.63
84188;BME280;76752;45.648;13.764;2024-02-21T03:11:46;102462.66;;;20.89;54.73
84188;BME280;76752;45.648;13.764;2024-02-21T03:14:12;102475.06;;;20.90;54.61
84188;BME280;76752;45.648;13.764;2024-02-21T03:16:38;102457.31;;;20.89;54.71
84188;BME280;76752;45.648;13.764;2024-02-21T03:19:05;102465.53;;;20.88;54.89
84188;BME280;76752;45.648;13.764;2024-02-21T03:21:31;102461.00;;;20.88;55.37
84188;BME280;76752;45.648;13.764;2024-02-21T03:23:56;102467.38;;;20.87;54.81
84188;BME280;76752;45.648;13.764;2024-02-21T03:26:23;102464.69;;;20.87;55.63
84188;BME280;76752;45.648;13.764;2024-02-21T03:28:50;102463.03;;;20.86;55.31
84188;BME280;76752;45.648;13.764;2024-02-21T03:31:15;102465.91;;;20.85;54.85
84188;BME280;76752;45.648;13.764;2024-02-21T03:33:42;102460.53;;;20.85;54.76
84188;BME280;76752;45.648;13.764;2024-02-21T03:36:14;102470.44;;;20.84;55.04
84188;BME280;76752;45.648;13.764;2024-02-21T03:38:42;102465.06;;;20.84;55.77
84188;BME280;76752;45.648;13.764;2024-02-21T03:41:08;102463.34;;;20.83;55.50
84188;BME280;76752;45.648;13.764;2024-02-21T03:43:34;102461.69;;;20.82;55.05
84188;BME280;76752;45.648;13.764;2024-02-21T03:46:00;102453.66;;;20.82;55.84
84188;BME280;76752;45.648;13.764;2024-02-21T03:48:26;102454.66;;;20.81;55.68
84188;BME280;76752;45.648;13.764;2024-02-21T03:50:52;102461.88;;;20.81;54.98
84188;BME280;76752;45.648;13.764;2024-02-21T03:53:18;102458.34;;;20.80;55.56
84188;BME280;76752;45.648;13.764;2024-02-21T03:55:44;102459.38;;;20.79;54.99
84188;BME280;76752;45.648;13.764;2024-02-21T03:58:10;102463.06;;;20.78;55.04
84188;BME280;76752;45.648;13.764;2024-02-21T04:00:39;102458.53;;;20.79;55.30
84188;BME280;76752;45.648;13.764;2024-02-21T04:03:05;102452.34;;;20.78;55.23
84188;BME280;76752;45.648;13.764;2024-02-21T04:05:31;102455.03;;;20.78;55.64
84188;BME280;76752;45.648;13.764;2024-02-21T04:07:58;102448.00;;;20.77;55.11
84188;BME280;76752;45.648;13.764;2024-02-21T04:10:24;102449.00;;;20.76;55.39
84188;BME280;76752;45.648;13.764;2024-02-21T04:12:51;102451.69;;;20.76;55.58
84188;BME280;76752;45.648;13.764;2024-02-21T04:15:16;102446.31;;;20.76;55.58
84188;BME280;76752;45.648;13.764;2024-02-21T04:17:42;102449.19;;;20.75;55.46
84188;BME280;76752;45.648;13.764;2024-02-21T04:20:14;102447.34;;;20.75;55.58
84188;BME280;76752;45.648;13.764;2024-02-21T04:22:44;102448.34;;;20.74;55.31
84188;BME280;76752;45.648;13.764;2024-02-21T04:25:13;102452.00;;;20.73;55.58
84188;BME280;76752;45.648;13.764;2024-02-21T04:27:39;102446.66;;;20.73;55.55
84188;BME280;76752;45.648;13.764;2024-02-21T04:30:05;102453.84;;;20.73;55.36
84188;BME280;76752;45.648;13.764;2024-02-21T04:32:32;102449.50;;;20.71;55.10
84188;BME280;76752;45.648;13.764;2024-02-21T04:34:58;102450.34;;;20.72;55.27
84188;BME280;76752;45.648;13.764;2024-02-21T04:37:24;102449.50;;;20.71;55.33
84188;BME280;76752;45.648;13.764;2024-02-21T04:39:50;102445.16;;;20.70;55.28
84188;BME280;76752;45.648;13.764;2024-02-21T04:42:16;102448.00;;;20.69;55.52
84188;BME280;76752;45.648;13.764;2024-02-21T04:44:42;102452.38;;;20.70;55.70
84188;BME280;76752;45.648;13.764;2024-02-21T04:47:08;102447.00;;;20.70;55.17
84188;BME280;76752;45.648;13.764;2024-02-21T04:49:34;102446.16;;;20.69;55.16
84188;BME280;76752;45.648;13.764;2024-02-21T04:52:00;102443.66;;;20.68;55.17
84188;BME280;76752;45.648;13.764;2024-02-21T04:54:26;102448.19;;;20.67;55.59
84188;BME280;76752;45.648;13.764;2024-02-21T04:56:52;102448.19;;;20.67;55.04
84188;BME280;76752;45.648;13.764;2024-02-21T04:59:19;102447.38;;;20.67;55.52
84188;BME280;76752;45.648;13.764;2024-02-21T05:01:46;102459.09;;;20.66;54.98
84188;BME280;76752;45.648;13.764;2024-02-21T05:04:12;102451.88;;;20.66;55.72
84188;BME280;76752;45.648;13.764;2024-02-21T05:06:39;102451.06;;;20.66;55.04
84188;BME280;76752;45.648;13.764;2024-02-21T05:09:06;102447.38;;;20.67;55.53
84188;BME280;76752;45.648;13.764;2024-02-21T05:11:34;102452.72;;;20.67;55.40
84188;BME280;76752;45.648;13.764;2024-02-21T05:14:00;102455.22;;;20.68;55.92
84188;BME280;76752;45.648;13.764;2024-02-21T05:16:26;102456.91;;;20.69;55.22
84188;BME280;76752;45.648;13.764;2024-02-21T05:18:51;102459.41;;;20.71;55.37
84188;BME280;76752;45.648;13.764;2024-02-21T05:21:17;102461.06;;;20.72;55.45
84188;BME280;76752;45.648;13.764;2024-02-21T05:23:43;102464.44;;;20.74;55.78
84188;BME280;76752;45.648;13.764;2024-02-21T05:26:09;102457.03;;;20.76;55.73
84188;BME280;76752;45.648;13.764;2024-02-21T05:28:35;102468.25;;;20.80;55.55
84188;BME280;76752;45.648;13.764;2024-02-21T05:31:01;102463.34;;;20.83;55.90
84188;BME280;76752;45.648;13.764;2024-02-21T05:33:27;102469.06;;;20.88;56.44
84188;BME280;76752;45.648;13.764;2024-02-21T05:35:53;102463.31;;;20.91;56.14
84188;BME280;76752;45.648;13.764;2024-02-21T05:38:20;102456.63;;;20.95;56.84
84188;BME280;76752;45.648;13.764;2024-02-21T05:40:46;102461.25;;;21.02;57.45
84188;BME280;76752;45.648;13.764;2024-02-21T05:43:13;102450.16;;;21.05;56.54
84188;BME280;76752;45.648;13.764;2024-02-21T05:45:39;102457.53;;;21.11;57.06
84188;BME280;76752;45.648;13.764;2024-02-21T05:48:05;102460.53;;;21.16;56.50
84188;BME280;76752;45.648;13.764;2024-02-21T05:50:32;102458.97;;;21.21;56.01
84188;BME280;76752;45.648;13.764;2024-02-21T05:52:58;102462.97;;;21.25;56.06
84188;BME280;76752;45.648;13.764;2024-02-21T05:55:24;102463.47;;;21.29;56.03
84188;BME280;76752;45.648;13.764;2024-02-21T05:57:53;102467.47;;;21.33;55.80
84188;BME280;76752;45.648;13.764;2024-02-21T06:00:19;102466.28;;;21.36;55.98
84188;BME280;76752;45.648;13.764;2024-02-21T06:02:48;102462.41;;;21.38;55.16
84188;BME280;76752;45.648;13.764;2024-02-21T06:05:15;102467.41;;;21.41;55.31
84188;BME280;76752;45.648;13.764;2024-02-21T06:07:40;102467.03;;;21.44;55.41
84188;BME280;76752;45.648;13.764;2024-02-21T06:10:07;102468.72;;;21.45;54.97
84188;BME280;76752;45.648;13.764;2024-02-21T06:12:34;102466.34;;;21.50;55.64
84188;BME280;76752;45.648;13.764;2024-02-21T06:14:59;102468.00;;;21.51;54.67
84188;BME280;76752;45.648;13.764;2024-02-21T06:17:25;102464.13;;;21.54;54.65
84188;BME280;76752;45.648;13.764;2024-02-21T06:19:51;102472.00;;;21.55;54.53
84188;BME280;76752;45.648;13.764;2024-02-21T06:22:17;102478.03;;;21.58;55.09
84188;BME280;76752;45.648;13.764;2024-02-21T06:24:43;102477.03;;;21.59;54.73
84188;BME280;76752;45.648;13.764;2024-02-21T06:27:09;102480.56;;;21.59;54.70
84188;BME280;76752;45.648;13.764;2024-02-21T06:29:36;102471.47;;;21.60;54.02
84188;BME280;76752;45.648;13.764;2024-02-21T06:32:02;102482.22;;;21.60;54.11
84188;BME280;76752;45.648;13.764;2024-02-21T06:34:28;102484.72;;;21.62;54.22
84188;BME280;76752;45.648;13.764;2024-02-21T06:36:55;102484.34;;;21.65;54.31
84188;BME280;76752;45.648;13.764;2024-02-21T06:39:21;102486.88;;;21.66;54.33
84188;BME280;76752;45.648;13.764;2024-02-21T06:41:48;102496.41;;;21.69;54.07
84188;BME280;76752;45.648;13.764;2024-02-21T06:44:15;102498.09;;;21.70;54.37
84188;BME280;76752;45.648;13.764;2024-02-21T06:46:41;102497.72;;;21.73;53.95
84188;BME280;76752;45.648;13.764;2024-02-21T06:49:08;102502.72;;;21.76;54.15
84188;BME280;76752;45.648;13.764;2024-02-21T06:51:33;102505.25;;;21.77;54.23
84188;BME280;76752;45.648;13.764;2024-02-21T06:54:00;102500.34;;;21.81;53.58
84188;BME280;76752;45.648;13.764;2024-02-21T06:56:26;102497.00;;;21.79;53.82
84188;BME280;76752;45.648;13.764;2024-02-21T06:58:55;102500.72;;;21.78;54.28
84188;BME280;76752;45.648;13.764;2024-02-21T07:01:21;102504.41;;;21.77;54.18
84188;BME280;76752;45.648;13.764;2024-02-21T07:03:47;102499.38;;;21.74;54.10
84188;BME280;76752;45.648;13.764;2024-02-21T07:06:13;102496.06;;;21.72;54.05
84188;BME280;76752;45.648;13.764;2024-02-21T07:08:39;102499.94;;;21.69;53.76
84188;BME280;76752;45.648;13.764;2024-02-21T07:11:06;102495.78;;;21.67;54.54
84188;BME280;76752;45.648;13.764;2024-02-21T07:13:32;102498.47;;;21.67;54.28
84188;BME280;76752;45.648;13.764;2024-02-21T07:15:58;102498.47;;;21.67;53.95
84188;BME280;76752;45.648;13.764;2024-02-21T07:18:25;102499.44;;;21.66;53.68
84188;BME280;76752;45.648;13.764;2024-02-21T07:20:52;102498.09;;;21.70;53.63
84188;BME280;76752;45.648;13.764;2024-02-21T07:23:18;102501.06;;;21.75;54.22
84188;BME280;76752;45.648;13.764;2024-02-21T07:25:43;102499.38;;;21.74;53.55
84188;BME280;76752;45.648;13.764;2024-02-21T07:28:09;102503.09;;;21.73;53.69
84188;BME280;76752;45.648;13.764;2024-02-21T07:30:35;102501.06;;;21.75;53.96
84188;BME280;76752;45.648;13.764;2024-02-21T07:33:01;102503.41;;;21.78;53.78
84188;BME280;76752;45.648;13.764;2024-02-21T07:35:27;102503.22;;;21.79;54.38
84188;BME280;76752;45.648;13.764;2024-02-21T07:37:53;102500.72;;;21.78;54.08
84188;BME280;76752;45.648;13.764;2024-02-21T07:40:22;102497.19;;;21.77;54.02
84188;BME280;76752;45.648;13.764;2024-02-21T07:42:48;102486.59;;;21.76;54.00
84188;BME280;76752;45.648;13.764;2024-02-21T07:45:14;102490.31;;;21.75;53.98
84188;BME280;76752;45.648;13.764;2024-02-21T07:47:39;102501.06;;;21.75;54.02
84188;BME280;76752;45.648;13.764;2024-02-21T07:50:06;102508.97;;;21.76;53.90
84188;BME280;76752;45.648;13.764;2024-02-21T07:52:34;102508.78;;;21.78;54.29
84188;BME280;76752;45.648;13.764;2024-02-21T07:54:59;102511.47;;;21.78;54.31
84188;BME280;76752;45.648;13.764;2024-02-21T07:57:26;102520.16;;;21.80;54.01
84188;BME280;76752;45.648;13.764;2024-02-21T07:59:53;102518.50;;;21.79;54.10
84188;BME280;76752;45.648;13.764;2024-02-21T08:02:20;102520.34;;;21.78;53.99
84188;BME280;76752;45.648;13.764;2024-02-21T08:04:46;102519.53;;;21.78;54.04
84188;BME280;76752;45.648;13.764;2024-02-21T08:07:12;102526.75;;;21.77;54.17
84188;BME280;76752;45.648;13.764;2024-02-21T08:09:42;102518.84;;;21.76;53.71
84188;BME280;76752;45.648;13.764;2024-02-21T08:12:07;102523.38;;;21.75;54.57
84188;BME280;76752;45.648;13.764;2024-02-21T08:14:34;102525.22;;;21.75;54.47
84188;BME280;76752;45.648;13.764;2024-02-21T08:17:00;102515.50;;;21.74;54.29
84188;BME280;76752;45.648;13.764;2024-02-21T08:19:26;102525.59;;;21.72;54.13
84188;BME280;76752;45.648;13.764;2024-02-21T08:21:51;102519.59;;;21.70;54.54
84188;BME280;76752;45.648;13.764;2024-02-21T08:24:17;102524.13;;;21.69;54.71
84188;BME280;76752;45.648;13.764;2024-02-21T08:26:44;102528.66;;;21.69;54.48
84188;BME280;76752;45.648;13.764;2024-02-21T08:29:13;102533.19;;;21.68;54.63
84188;BME280;76752;45.648;13.764;2024-02-21T08:31:41;102536.06;;;21.67;54.74
84188;BME280;76752;45.648;13.764;2024-02-21T08:34:06;102529.00;;;21.66;54.74
84188;BME280;76752;45.648;13.764;2024-02-21T08:36:36;102532.69;;;21.65;54.51
84188;BME280;76752;45.648;13.764;2024-02-21T08:39:03;102536.41;;;21.64;54.32
84188;BME280;76752;45.648;13.764;2024-02-21T08:41:32;102535.56;;;21.63;54.27
84188;BME280;76752;45.648;13.764;2024-02-21T08:43:59;102535.56;;;21.63;54.20
84188;BME280;76752;45.648;13.764;2024-02-21T08:46:26;102535.75;;;21.62;54.85
84188;BME280;76752;45.648;13.764;2024-02-21T08:48:55;102536.78;;;21.61;54.47
84188;BME280;76752;45.648;13.764;2024-02-21T08:51:21;102535.94;;;21.60;55.12
84188;BME280;76752;45.648;13.764;2024-02-21T08:53:48;102540.47;;;21.60;54.84
84188;BME280;76752;45.648;13.764;2024-02-21T08:56:14;102528.06;;;21.59;54.27
84188;BME280;76752;45.648;13.764;2024-02-21T08:58:40;102526.38;;;21.58;54.90
84188;BME280;76752;45.648;13.764;2024-02-21T09:01:07;102530.09;;;21.56;54.44
84188;BME280;76752;45.648;13.764;2024-02-21T09:03:36;102527.41;;;21.56;54.50
84188;BME280;76752;45.648;13.764;2024-02-21T09:06:02;102528.41;;;21.55;54.34
84188;BME280;76752;45.648;13.764;2024-02-21T09:08:28;102523.03;;;21.55;54.44
84188;BME280;76752;45.648;13.764;2024-02-21T09:10:54;102529.41;;;21.54;54.44
84188;BME280;76752;45.648;13.764;2024-02-21T09:13:20;102521.34;;;21.54;54.86
84188;BME280;76752;45.648;13.764;2024-02-21T09:15:47;102518.66;;;21.54;55.09
84188;BME280;76752;45.648;13.764;2024-02-21T09:18:14;102521.34;;;21.54;54.84
84188;BME280;76752;45.648;13.764;2024-02-21T09:20:40;102520.69;;;21.52;55.04
84188;BME280;76752;45.648;13.764;2024-02-21T09:23:06;102528.75;;;21.52;55.29
84188;BME280;76752;45.648;13.764;2024-02-21T09:25:33;102521.72;;;21.51;55.17
84188;BME280;76752;45.648;13.764;2024-02-21T09:28:00;102523.38;;;21.52;54.49
84188;BME280;76752;45.648;13.764;2024-02-21T09:30:26;102520.88;;;21.51;54.95
84188;BME280;76752;45.648;13.764;2024-02-21T09:32:53;102518.38;;;21.49;54.86
84188;BME280;76752;45.648;13.764;2024-02-21T09:35:19;102514.69;;;21.50;54.75
84188;BME280;76752;45.648;13.764;2024-02-21T09:37:44;102522.75;;;21.50;54.75
84188;BME280;76752;45.648;13.764;2024-02-21T09:40:11;102517.38;;;21.50;54.99
84188;BME280;76752;45.648;13.764;2024-02-21T09:42:39;102519.03;;;21.51;54.83
84188;BME280;76752;45.648;13.764;2024-02-21T09:45:08;102517.19;;;21.52;55.20
84188;BME280;76752;45.648;13.764;2024-02-21T09:48:11;102522.19;;;21.55;55.01
84188;BME280;76752;45.648;13.764;2024-02-21T09:50:40;102528.41;;;21.55;54.58
84188;BME280;76752;45.648;13.764;2024-02-21T09:53:09;102526.38;;;21.58;54.51
84188;BME280;76752;45.648;13.764;2024-02-21T09:55:37;102527.03;;;21.60;54.63
84188;BME280;76752;45.648;13.764;2024-02-21T09:58:05;102533.06;;;21.62;54.58
84188;BME280;76752;45.648;13.764;2024-02-21T10:00:31;102536.41;;;21.64;54.44
84188;BME280;76752;45.648;13.764;2024-02-21T10:02:58;102550.47;;;21.66;54.09
84188;BME280;76752;45.648;13.764;2024-02-21T10:05:24;102545.78;;;21.68;54.44
84188;BME280;76752;45.648;13.764;2024-02-21T10:07:51;102544.78;;;21.69;54.40
84188;BME280;76752;45.648;13.764;2024-02-21T10:10:17;102542.75;;;21.71;54.68
84188;BME280;76752;45.648;13.764;2024-02-21T10:12:50;102544.41;;;21.72;54.32
84188;BME280;76752;45.648;13.764;2024-02-21T10:15:20;102547.75;;;21.74;54.79
84188;BME280;76752;45.648;13.764;2024-02-21T10:17:46;102549.41;;;21.75;54.55
84188;BME280;76752;45.648;13.764;2024-02-21T10:20:13;102543.03;;;21.76;54.01
84188;BME280;76752;45.648;13.764;2024-02-21T10:22:40;102544.72;;;21.77;54.32
84188;BME280;76752;45.648;13.764;2024-02-21T10:25:10;102549.06;;;21.78;54.09
84188;BME280;76752;45.648;13.764;2024-02-21T10:27:37;102553.63;;;21.77;54.23
84188;BME280;76752;45.648;13.764;2024-02-21T10:30:07;102552.41;;;21.80;54.81
84188;BME280;76752;45.648;13.764;2024-02-21T10:32:33;102549.72;;;21.80;54.70
84188;BME280;76752;45.648;13.764;2024-02-21T10:35:04;102547.88;;;21.80;54.58
84188;BME280;76752;45.648;13.764;2024-02-21T10:37:34;102539.16;;;21.78;54.26
84188;BME280;76752;45.648;13.764;2024-02-21T10:40:00;102536.28;;;21.80;54.37
84188;BME280;76752;45.648;13.764;2024-02-21T10:42:29;102532.97;;;21.78;54.64
84188;BME280;76752;45.648;13.764;2024-02-21T10:45:01;102523.69;;;21.80;54.77
84188;BME280;76752;45.648;13.764;2024-02-21T10:47:32;102521.19;;;21.79;54.29
84188;BME280;76752;45.648;13.764;2024-02-21T10:50:03;102513.97;;;21.79;54.57
84188;BME280;76752;45.648;13.764;2024-02-21T10:53:03;102508.59;;;21.79;53.95
84188;BME280;76752;45.648;13.764;2024-02-21T10:55:40;102500.72;;;21.78;53.83
84188;BME280;76752;45.648;13.764;2024-02-21T10:58:14;102505.25;;;21.77;54.07
84188;BME280;76752;45.648;13.764;2024-02-21T11:00:40;102500.72;;;21.78;54.32
84188;BME280;76752;45.648;13.764;2024-02-21T11:03:06;102487.47;;;21.76;54.59
84188;BME280;76752;45.648;13.764;2024-02-21T11:05:32;102481.22;;;21.76;54.09
84188;BME280;76752;45.648;13.764;2024-02-21T11:07:59;102475.03;;;21.75;54.13
84188;BME280;76752;45.648;13.764;2024-02-21T11:10:26;102475.84;;;21.76;54.21
84188;BME280;76752;45.648;13.764;2024-02-21T11:13:04;102467.78;;;21.76;53.89
84188;BME280;76752;45.648;13.764;2024-02-21T11:15:31;102457.72;;;21.78;54.04
84188;BME280;76752;45.648;13.764;2024-02-21T11:17:57;102461.25;;;21.78;54.09
84188;BME280;76752;45.648;13.764;2024-02-21T11:20:32;102447.81;;;21.78;54.08
84188;BME280;76752;45.648;13.764;2024-02-21T11:22:58;102443.28;;;21.79;54.50
84188;BME280;76752;45.648;13.764;2024-02-21T11:25:24;102442.91;;;21.82;54.22
84188;BME280;76752;45.648;13.764;2024-02-21T11:28:01;102446.22;;;21.84;54.18
84188;BME280;76752;45.648;13.764;2024-02-21T11:30:30;102437.00;;;21.87;54.65
84188;BME280;76752;45.648;13.764;2024-02-21T11:33:03;102437.47;;;21.90;54.23
84188;BME280;76752;45.648;13.764;2024-02-21T11:35:38;102429.03;;;21.93;54.09
84188;BME280;76752;45.648;13.764;2024-02-21T11:38:11;102418.75;;;21.97;54.25
84188;BME280;76752;45.648;13.764;2024-02-21T11:40:43;102410.13;;;22.01;53.53
84188;BME280;76752;45.648;13.764;2024-02-21T11:43:09;102404.38;;;22.04;53.33
84188;BME280;76752;45.648;13.764;2024-02-21T11:45:34;102398.69;;;22.07;53.64
84188;BME280;76752;45.648;13.764;2024-02-21T11:48:00;102394.59;;;22.11;53.27
84188;BME280;76752;45.648;13.764;2024-02-21T11:50:28;102391.53;;;22.14;53.64
84188;BME280;76752;45.648;13.764;2024-02-21T11:52:55;102392.16;;;22.17;53.55
84188;BME280;76752;45.648;13.764;2024-02-21T11:55:24;102383.94;;;22.18;53.08
84188;BME280;76752;45.648;13.764;2024-02-21T11:57:50;102374.84;;;22.19;53.13
84188;BME280;76752;45.648;13.764;2024-02-21T12:00:18;102376.53;;;22.20;53.35
84188;BME280;76752;45.648;13.764;2024-02-21T12:02:47;102378.19;;;22.21;53.36
84188;BME280;76752;45.648;13.764;2024-02-21T12:05:13;102367.44;;;22.21;53.76
84188;BME280;76752;45.648;13.764;2024-02-21T12:07:40;102379.66;;;22.24;53.26
84188;BME280;76752;45.648;13.764;2024-02-21T12:10:11;102382.34;;;22.24;53.14
84188;BME280;76752;45.648;13.764;2024-02-21T12:12:38;102379.47;;;22.25;53.75
84188;BME280;76752;45.648;13.764;2024-02-21T12:15:04;102379.28;;;22.27;53.35
84188;BME280;76752;45.648;13.764;2024-02-21T12:17:32;102373.06;;;22.26;53.34
84188;BME280;76752;45.648;13.764;2024-02-21T12:19:59;102372.22;;;22.26;52.99
84188;BME280;76752;45.648;13.764;2024-02-21T12:22:25;102369.53;;;22.26;53.13
84188;BME280;76752;45.648;13.764;2024-02-21T12:24:52;102370.56;;;22.25;53.55
84188;BME280;76752;45.648;13.764;2024-02-21T12:27:18;102362.50;;;22.25;53.46
84188;BME280;76752;45.648;13.764;2024-02-21T12:29:44;102358.97;;;22.24;53.25
84188;BME280;76752;45.648;13.764;2024-02-21T12:32:10;102360.84;;;22.24;53.66
84188;BME280;76752;45.648;13.764;2024-02-21T12:34:36;102368.91;;;22.24;53.71
84188;BME280;76752;45.648;13.764;2024-02-21T12:37:02;102368.25;;;22.22;53.18
84188;BME280;76752;45.648;13.764;2024-02-21T12:39:31;102377.34;;;22.21;53.88
84188;BME280;76752;45.648;13.764;2024-02-21T12:41:57;102370.31;;;22.20;53.23